Terminal Aerodrome Forecast
Issued by NWS Paducah, KY

Home | Current Version | Previous Version | Text Only | Print | Product List | Glossary On
Versions: 1 2 3 4 5 6 7 8 9 10 11 12 13 14 15 16
000
FTUS43 KPAH 301200 AAA
TAFEVV
TAF AMD
KEVV 301242Z 3013/3112 21004KT P6SM BKN040
      TEMPO 3013/3016 2SM +TSRA BKN040CB
     FM301600 20008KT 6SM -SHRA BR VCTS SCT035CB OVC050
     FM310200 20005KT 5SM BR OVC040
     FM310400 19005KT 4SM BR OVC020
     FM310700 18004KT 4SM BR OVC007=

USA.gov is the U.S. government's official web portal to all federal, state and local government web resources and services.